Time;durP1;ratioP1;P1;durP2;ratioP2;P2;SDS_P1;SDS_P2;PMS_P1;PMS_P2;Temp;Humidity;BMP_temperature;BMP_pressure;BME280_temperature;BME280_humidity;BME280_pressure;Samples;Min_cycle;Max_cycle;Signal;HPM_P1;HPM_P2
2021/08/27 00:04:44;;;;;;;17.90;3.97;;;;;13.40;101313.00;;;;12895238;22;20166;-78
2021/08/27 00:09:45;;;;;;;8.40;4.17;;;;;13.30;101310.00;;;;12869848;22;20169;-78
2021/08/27 00:14:46;;;;;;;13.30;4.50;;;;;13.30;101304.00;;;;12894122;22;20216;-78
2021/08/27 00:19:47;;;;;;;15.30;4.40;;;;;13.20;101306.00;;;;12869141;22;20236;-78
2021/08/27 00:24:49;;;;;;;11.80;4.50;;;;;13.20;101306.00;;;;12869010;22;20173;-78
2021/08/27 00:29:50;;;;;;;11.37;4.40;;;;;13.10;101305.00;;;;12869769;22;20173;-78
2021/08/27 00:34:52;;;;;;;10.37;3.97;;;;;13.10;101306.00;;;;12893326;22;20221;-78
2021/08/27 00:39:53;;;;;;;12.27;4.40;;;;;13.00;101300.00;;;;12893361;22;20730;-78
2021/08/27 00:44:55;;;;;;;13.03;3.87;;;;;12.90;101301.00;;;;12891332;22;20277;-78
2021/08/27 00:49:57;;;;;;;11.30;3.80;;;;;12.80;101301.00;;;;12869541;22;20166;-80
2021/08/27 00:54:58;;;;;;;8.57;4.10;;;;;12.80;101298.00;;;;12867050;22;20495;-78
2021/08/27 00:59:59;;;;;;;8.83;3.67;;;;;12.70;101309.00;;;;12918656;22;20166;-78
2021/08/27 01:05:05;;;;;;;8.83;3.33;;;;;12.60;101309.00;;;;12893104;22;20177;-78
2021/08/27 01:10:11;;;;;;;9.97;3.03;;;;;12.50;101301.00;;;;12893995;22;20173;-78
2021/08/27 01:15:22;;;;;;;6.77;3.13;;;;;12.40;101310.00;;;;12893701;22;20197;-77
2021/08/27 01:20:48;;;;;;;13.77;3.83;;;;;12.30;101304.00;;;;12893503;22;20174;-78
2021/08/27 01:25:53;;;;;;;7.33;3.27;;;;;12.10;101309.00;;;;12867953;22;20593;-80
2021/08/27 01:31:34;;;;;;;11.77;4.10;;;;;12.00;101304.00;;;;12869067;22;20204;-78
2021/08/27 01:36:37;;;;;;;10.23;4.03;;;;;11.90;101307.00;;;;12916218;22;20201;-78
2021/08/27 01:41:41;;;;;;;11.27;4.00;;;;;11.80;101305.00;;;;12868295;22;20169;-78
2021/08/27 01:46:43;;;;;;;9.77;4.00;;;;;11.70;101305.00;;;;12867192;22;20181;-78
2021/08/27 01:51:46;;;;;;;11.13;3.60;;;;;11.70;101315.00;;;;12892494;22;20578;-78
2021/08/27 01:56:49;;;;;;;10.87;3.70;;;;;11.60;101317.00;;;;12843156;22;20204;-78
2021/08/27 02:01:51;;;;;;;12.17;4.03;;;;;11.50;101315.00;;;;12843859;23;20173;-78
2021/08/27 02:06:53;;;;;;;8.60;3.20;;;;;11.50;101320.00;;;;12892707;22;20173;-78
2021/08/27 02:11:55;;;;;;;11.07;3.53;;;;;11.60;101335.00;;;;12938601;22;20165;-78
2021/08/27 02:16:56;;;;;;;14.27;3.37;;;;;11.70;101337.00;;;;12867745;22;20197;-78
2021/08/27 02:21:59;;;;;;;9.43;4.13;;;;;11.60;101338.00;;;;12892218;22;20634;-78
2021/08/27 02:27:03;;;;;;;11.03;3.27;;;;;11.60;101337.00;;;;12893229;22;20640;-78
2021/08/27 02:32:07;;;;;;;7.87;3.57;;;;;11.50;101342.00;;;;12918274;22;20169;-78
2021/08/27 02:37:13;;;;;;;9.03;3.47;;;;;11.40;101341.00;;;;12938334;22;20190;-78
2021/08/27 02:42:15;;;;;;;6.93;3.57;;;;;11.40;101344.00;;;;12868327;22;20169;-78
2021/08/27 02:47:16;;;;;;;8.40;2.87;;;;;11.30;101341.00;;;;12938519;22;20166;-78
2021/08/27 02:52:43;;;;;;;12.33;3.43;;;;;11.30;101338.00;;;;12890678;22;20169;-78
2021/08/27 02:57:51;;;;;;;6.20;2.93;;;;;11.30;101344.00;;;;12864908;22;20196;-80
2021/08/27 03:02:53;;;;;;;7.87;3.40;;;;;11.30;101348.00;;;;12865933;22;20679;-80
2021/08/27 03:08:07;;;;;;;6.37;2.77;;;;;11.30;101342.00;;;;12889936;22;20173;-80
2021/08/27 03:13:33;;;;;;;10.77;3.07;;;;;11.30;101342.00;;;;12864499;22;20198;-80
2021/08/27 03:18:43;;;;;;;14.83;3.47;;;;;11.30;101331.00;;;;12840966;22;20328;-78
2021/08/27 03:23:48;;;;;;;14.80;3.47;;;;;11.30;101329.00;;;;12890287;22;20174;-78
2021/08/27 03:28:53;;;;;;;9.27;3.50;;;;;11.20;101331.00;;;;12889578;22;20177;-79
2021/08/27 03:33:58;;;;;;;8.53;3.17;;;;;11.20;101323.00;;;;12937661;22;20901;-78
2021/08/27 03:39:01;;;;;;;8.33;3.17;;;;;11.10;101324.00;;;;12866009;22;20178;-78
2021/08/27 03:44:04;;;;;;;9.60;2.87;;;;;11.10;101324.00;;;;12840588;22;20260;-80
2021/08/27 03:49:05;;;;;;;11.73;3.40;;;;;11.00;101325.00;;;;12863882;22;20298;-80
2021/08/27 03:54:06;;;;;;;7.90;2.90;;;;;11.00;101336.00;;;;12888897;22;20204;-80
2021/08/27 03:59:08;;;;;;;7.83;3.07;;;;;10.90;101341.00;;;;12839883;22;20613;-78
2021/08/27 04:04:16;;;;;;;8.77;2.87;;;;;10.80;101344.00;;;;12911589;22;20194;-78
2021/08/27 04:09:18;;;;;;;11.50;2.77;;;;;10.80;101338.00;;;;12864881;22;20169;-80
2021/08/27 04:14:20;;;;;;;11.67;3.57;;;;;10.80;101344.00;;;;12892210;22;20212;-80
2021/08/27 04:19:21;;;;;;;8.40;3.23;;;;;10.70;101349.00;;;;12892173;22;20244;-80
2021/08/27 04:24:24;;;;;;;7.57;3.20;;;;;10.70;101346.00;;;;12867524;22;20181;-80
2021/08/27 04:29:26;;;;;;;8.57;3.20;;;;;10.60;101357.00;;;;12868664;22;20177;-79
2021/08/27 04:34:27;;;;;;;9.83;3.10;;;;;10.60;101363.00;;;;12914103;22;20189;-78
2021/08/27 04:39:28;;;;;;;7.77;3.43;;;;;10.50;101365.00;;;;12868314;22;20613;-79
2021/08/27 04:44:29;;;;;;;8.03;3.53;;;;;10.50;101365.00;;;;12868787;22;20510;-78
2021/08/27 04:49:30;;;;;;;7.97;3.33;;;;;10.50;101369.00;;;;12892996;22;20184;-81
2021/08/27 04:54:32;;;;;;;12.90;3.47;;;;;10.50;101364.00;;;;12843853;22;20235;-80
2021/08/27 04:59:33;;;;;;;7.03;3.33;;;;;10.50;101370.00;;;;12868227;22;20174;-79
2021/08/27 05:04:34;;;;;;;7.10;3.30;;;;;10.50;101376.00;;;;12869023;22;20248;-79
2021/08/27 05:09:36;;;;;;;11.67;3.60;;;;;10.60;101383.00;;;;12893662;22;20180;-80
2021/08/27 05:14:37;;;;;;;8.63;3.43;;;;;10.60;101380.00;;;;12892872;22;20639;-80
2021/08/27 05:19:38;;;;;;;7.97;4.00;;;;;10.60;101378.00;;;;12892698;22;20189;-80
2021/08/27 05:24:39;;;;;;;9.03;3.60;;;;;10.70;101387.00;;;;12892140;22;20177;-80
2021/08/27 05:29:40;;;;;;;7.27;3.17;;;;;10.70;101395.00;;;;12868892;22;20597;-81
2021/08/27 05:34:42;;;;;;;12.33;3.60;;;;;10.80;101400.00;;;;12843614;22;20204;-81
2021/08/27 05:39:43;;;;;;;11.03;3.23;;;;;10.90;101412.00;;;;12867946;22;20165;-81
2021/08/27 05:44:44;;;;;;;9.40;3.57;;;;;11.00;101410.00;;;;12868070;22;20174;-79
2021/08/27 05:49:45;;;;;;;10.77;3.83;;;;;11.20;101421.00;;;;12868869;22;20181;-79
2021/08/27 05:54:46;;;;;;;10.30;4.27;;;;;11.30;101423.00;;;;12892511;22;20205;-81
2021/08/27 05:59:47;;;;;;;16.67;5.23;;;;;11.80;101433.00;;;;12867528;22;20180;-81
2021/08/27 06:04:48;;;;;;;14.50;5.97;;;;;12.70;101439.00;;;;12890538;22;20212;-80
2021/08/27 06:09:50;;;;;;;16.97;5.97;;;;;13.50;101450.00;;;;12867977;22;20177;-78
2021/08/27 06:14:51;;;;;;;10.27;4.30;;;;;14.10;101460.00;;;;12892233;22;20193;-78
2021/08/27 06:19:52;;;;;;;8.07;4.07;;;;;14.80;101482.00;;;;12891964;22;20251;-78
2021/08/27 06:24:53;;;;;;;7.77;2.80;;;;;14.80;101501.00;;;;12893398;22;20173;-79
2021/08/27 06:29:54;;;;;;;5.37;2.70;;;;;14.70;101507.00;;;;12842704;22;20166;-78
2021/08/27 06:34:56;;;;;;;6.77;2.53;;;;;15.10;101513.00;;;;12844619;22;20197;-78
2021/08/27 06:39:57;;;;;;;6.27;2.37;;;;;15.70;101530.00;;;;12842025;22;20177;-77
2021/08/27 06:44:58;;;;;;;7.65;2.58;;;;;16.20;101529.00;;;;12891890;22;20185;-77
2021/08/27 06:49:59;;;;;;;4.55;1.65;;;;;16.50;101532.00;;;;12892305;22;20169;-78
2021/08/27 06:55:01;;;;;;;6.90;2.35;;;;;16.90;101523.00;;;;12866435;22;20196;-78
2021/08/27 07:00:04;;;;;;;6.80;2.17;;;;;17.40;101528.00;;;;12865698;22;20259;-78
2021/08/27 07:05:07;;;;;;;7.15;1.98;;;;;17.70;101530.00;;;;12864575;22;20170;-78
2021/08/27 07:10:08;;;;;;;6.07;1.80;;;;;18.00;101522.00;;;;12866119;22;20176;-78
2021/08/27 07:15:09;;;;;;;6.22;1.50;;;;;18.30;101517.00;;;;12864186;22;20228;-78
2021/08/27 07:20:11;;;;;;;3.90;1.30;;;;;18.60;101506.00;;;;12866408;22;20840;-78
2021/08/27 07:25:14;;;;;;;5.88;1.70;;;;;18.30;101523.00;;;;12866209;22;20170;-78
2021/08/27 07:30:16;;;;;;;5.18;1.40;;;;;18.40;101525.00;;;;12912017;22;20172;-78
2021/08/27 07:35:18;;;;;;;4.50;1.23;;;;;18.90;101515.00;;;;12890570;22;20626;-79
2021/08/27 07:40:19;;;;;;;2.85;1.50;;;;;19.10;101518.00;;;;12915031;22;20636;-79
2021/08/27 07:45:20;;;;;;;4.03;1.75;;;;;19.50;101522.00;;;;12891122;22;20169;-79
2021/08/27 07:50:21;;;;;;;5.50;0.95;;;;;19.80;101522.00;;;;12915656;22;20165;-79
2021/08/27 07:55:22;;;;;;;6.15;1.17;;;;;20.20;101508.00;;;;12894466;22;20629;-79
2021/08/27 08:00:25;;;;;;;5.57;0.95;;;;;20.40;101507.00;;;;12895752;23;20176;-80
2021/08/27 08:05:26;;;;;;;5.28;1.23;;;;;20.80;101518.00;;;;12871256;22;20173;-79
2021/08/27 08:10:28;;;;;;;4.03;1.23;;;;;21.10;101511.00;;;;12896230;22;20224;-79
2021/08/27 08:15:29;;;;;;;6.70;1.10;;;;;21.40;101513.00;;;;12872543;22;20185;-79
2021/08/27 08:20:31;;;;;;;2.45;1.05;;;;;21.70;101512.00;;;;12872322;22;20177;-79
2021/08/27 08:25:38;;;;;;;4.95;1.35;;;;;22.00;101506.00;;;;12897141;22;20170;-80
2021/08/27 08:30:41;;;;;;;4.32;1.10;;;;;22.30;101507.00;;;;12872293;22;20176;-79
2021/08/27 08:35:42;;;;;;;3.75;0.90;;;;;22.60;101492.00;;;;12945094;22;20189;-79
2021/08/27 08:40:45;;;;;;;1.83;0.75;;;;;22.80;101501.00;;;;12899598;22;20197;-79
2021/08/27 08:45:49;;;;;;;5.03;0.98;;;;;23.40;101499.00;;;;12897671;22;20173;-80
2021/08/27 08:50:51;;;;;;;5.53;1.38;;;;;23.30;101506.00;;;;12897764;22;20224;-80
2021/08/27 08:55:52;;;;;;;5.07;1.30;;;;;21.80;101502.00;;;;12898247;22;20197;-79
2021/08/27 09:00:54;;;;;;;4.78;1.33;;;;;23.30;101501.00;;;;12897985;23;20172;-80
2021/08/27 09:05:55;;;;;;;2.97;1.00;;;;;24.10;101499.00;;;;12874763;22;20180;-80
2021/08/27 09:10:56;;;;;;;5.03;1.40;;;;;23.90;101499.00;;;;12873632;22;20489;-80
2021/08/27 09:16:05;;;;;;;4.55;1.48;;;;;24.90;101494.00;;;;12872834;22;20676;-80
2021/08/27 09:21:31;;;;;;;5.35;1.08;;;;;25.70;101487.00;;;;12897726;22;20178;-81
2021/08/27 09:26:38;;;;;;;4.60;1.10;;;;;25.90;101504.00;;;;12898074;22;20174;-80
2021/08/27 09:31:40;;;;;;;3.38;1.15;;;;;23.40;101499.00;;;;12874363;22;20180;-80
2021/08/27 09:36:41;;;;;;;4.22;1.17;;;;;23.80;101495.00;;;;12875842;22;20216;-81
2021/08/27 09:41:56;;;;;;;0.88;0.75;;;;;24.50;101484.00;;;;12898097;22;20169;-80
2021/08/27 09:47:04;;;;;;;1.55;0.77;;;;;24.80;101477.00;;;;12898898;22;20200;-80
2021/08/27 09:52:10;;;;;;;7.22;1.40;;;;;25.60;101479.00;;;;12898043;22;20169;-81
2021/08/27 09:57:14;;;;;;;3.08;1.00;;;;;25.00;101474.00;;;;12898945;22;20499;-80
2021/08/27 10:02:17;;;;;;;2.75;0.95;;;;;25.30;101487.00;;;;12880659;23;20525;-81
2021/08/27 10:07:25;;;;;;;4.60;1.08;;;;;24.00;101487.00;;;;12874739;22;20181;-81
2021/08/27 10:12:38;;;;;;;3.78;1.30;;;;;22.90;101481.00;;;;12893807;22;20249;-80
2021/08/27 10:17:41;;;;;;;6.20;1.40;;;;;22.80;101476.00;;;;12851256;22;20193;-81
2021/08/27 10:22:42;;;;;;;6.15;1.20;;;;;22.90;101478.00;;;;12899056;22;20173;-80
2021/08/27 10:27:48;;;;;;;1.88;1.02;;;;;24.20;101473.00;;;;12899826;22;20205;-80
2021/08/27 10:32:50;;;;;;;2.60;1.40;;;;;25.20;101462.00;;;;12880260;22;20541;-80
2021/08/27 10:37:53;;;;;;;1.67;0.90;;;;;26.10;101473.00;;;;12905108;22;20184;-80
2021/08/27 10:43:02;;;;;;;4.07;1.08;;;;;25.30;101472.00;;;;12876265;22;20188;-80
2021/08/27 10:48:12;;;;;;;4.35;1.38;;;;;25.80;101454.00;;;;12875603;22;20173;-80
2021/08/27 10:53:32;;;;;;;3.97;1.10;;;;;26.90;101460.00;;;;12897917;23;20193;-80
2021/08/27 10:58:47;;;;;;;5.53;1.33;;;;;25.90;101467.00;;;;12846336;22;20232;-80
2021/08/27 11:03:59;;;;;;;1.95;1.02;;;;;24.90;101464.00;;;;12876013;22;20181;-80
2021/08/27 11:09:21;;;;;;;1.58;0.90;;;;;24.20;101468.00;;;;12875495;22;20174;-80
2021/08/27 11:14:22;;;;;;;2.88;1.58;;;;;24.10;101462.00;;;;12896848;22;20185;-79
2021/08/27 11:19:31;;;;;;;3.97;1.50;;;;;23.50;101469.00;;;;12851195;23;20280;-80
2021/08/27 11:24:33;;;;;;;4.18;1.60;;;;;22.30;101475.00;;;;12899490;22;20918;-80
2021/08/27 11:29:38;;;;;;;3.22;1.88;;;;;21.30;101471.00;;;;12949966;22;20196;-79
2021/08/27 11:34:56;;;;;;;4.55;1.80;;;;;20.30;101460.00;;;;12901707;22;20840;-79
2021/08/27 11:39:58;;;;;;;3.97;1.33;;;;;19.50;101472.00;;;;12900897;22;20173;-80
2021/08/27 11:45:09;;;;;;;3.58;1.40;;;;;19.30;101481.00;;;;12876243;22;20173;-79
2021/08/27 11:50:23;;;;;;;5.03;1.50;;;;;19.60;101465.00;;;;12875769;22;20526;-79
2021/08/27 11:55:26;;;;;;;4.45;1.23;;;;;20.30;101458.00;;;;12874770;22;20201;-80
2021/08/27 12:00:42;;;;;;;3.03;1.40;;;;;21.00;101466.00;;;;12850614;22;20665;-79
2021/08/27 12:05:44;;;;;;;3.15;1.55;;;;;21.40;101460.00;;;;12946826;22;20169;-80
2021/08/27 12:10:45;;;;;;;4.05;1.20;;;;;21.80;101463.00;;;;12871770;22;20169;-79
2021/08/27 12:15:46;;;;;;;4.50;1.70;;;;;21.90;101464.00;;;;12896993;22;20198;-79
2021/08/27 12:20:49;;;;;;;2.42;1.33;;;;;21.50;101463.00;;;;12888474;22;20252;-79
2021/08/27 12:26:08;;;;;;;3.45;1.50;;;;;20.70;101467.00;;;;12868745;22;20183;-80
2021/08/27 12:31:09;;;;;;;3.17;1.73;;;;;20.20;101457.00;;;;12888480;22;20259;-79
2021/08/27 12:36:40;;;;;;;3.85;1.70;;;;;20.40;101460.00;;;;12873896;22;20197;-79
2021/08/27 12:41:42;;;;;;;6.15;1.63;;;;;21.00;101459.00;;;;12865342;22;20181;-80
2021/08/27 12:46:48;;;;;;;5.38;1.70;;;;;21.60;101445.00;;;;12889938;22;21086;-79
2021/08/27 12:51:53;;;;;;;5.10;1.92;;;;;22.00;101458.00;;;;12933726;22;20200;-79
2021/08/27 12:56:57;;;;;;;5.75;1.60;;;;;21.70;101460.00;;;;12865572;22;20197;-78
2021/08/27 13:02:01;;;;;;;4.13;2.00;;;;;22.20;101442.00;;;;12940403;22;20158;-80
2021/08/27 13:07:03;;;;;;;4.90;1.98;;;;;23.10;101448.00;;;;12941236;22;20466;-80
2021/08/27 13:12:05;;;;;;;5.30;1.92;;;;;23.50;101448.00;;;;12916393;22;20204;-80
2021/08/27 13:17:19;;;;;;;4.90;1.92;;;;;24.10;101437.00;;;;12940645;22;20231;-79
2021/08/27 13:22:26;;;;;;;5.60;2.45;;;;;23.70;101436.00;;;;12868674;22;20174;-80
2021/08/27 13:27:28;;;;;;;7.57;2.38;;;;;22.20;101436.00;;;;12841563;22;20165;-80
2021/08/27 13:32:47;;;;;;;5.15;2.45;;;;;21.00;101435.00;;;;12934600;22;20267;-80
2021/08/27 13:37:50;;;;;;;6.60;2.10;;;;;20.80;101433.00;;;;12887674;22;20188;-80
2021/08/27 13:42:52;;;;;;;6.63;2.17;;;;;20.80;101427.00;;;;12887533;22;21062;-80
2021/08/27 13:47:53;;;;;;;5.22;1.95;;;;;21.30;101423.00;;;;12887268;22;20177;-81
2021/08/27 13:52:56;;;;;;;6.93;1.70;;;;;22.70;101408.00;;;;12863647;22;20173;-80
2021/08/27 13:57:57;;;;;;;4.15;1.40;;;;;22.00;101420.00;;;;12930671;22;20193;-81
2021/08/27 14:02:58;;;;;;;7.18;1.65;;;;;22.00;101421.00;;;;12916407;22;20268;-80
2021/08/27 14:08:01;;;;;;;7.45;1.92;;;;;21.40;101418.00;;;;12891691;22;20170;-79
2021/08/27 14:13:04;;;;;;;7.88;1.58;;;;;22.00;101403.00;;;;12892792;22;20170;-79
2021/08/27 14:18:05;;;;;;;3.78;1.42;;;;;24.30;101414.00;;;;12884607;22;20196;-79
2021/08/27 14:23:06;;;;;;;6.38;1.50;;;;;24.90;101417.00;;;;12844479;22;20217;-80
2021/08/27 14:28:08;;;;;;;5.40;2.00;;;;;26.80;101380.00;;;;12859512;22;20189;-80
2021/08/27 14:33:09;;;;;;;4.57;1.63;;;;;23.60;101403.00;;;;12937389;22;20181;-80
2021/08/27 14:38:10;;;;;;;9.63;1.80;;;;;28.40;101390.00;;;;12963469;22;20171;-80
2021/08/27 14:43:12;;;;;;;5.07;1.63;;;;;30.00;101384.00;;;;12892060;22;20184;-80
2021/08/27 14:48:13;;;;;;;3.83;1.52;;;;;29.00;101392.00;;;;12866927;22;20180;-80
2021/08/27 14:53:14;;;;;;;3.42;1.27;;;;;26.40;101387.00;;;;12867836;22;20189;-80
2021/08/27 14:58:16;;;;;;;7.72;1.65;;;;;22.80;101396.00;;;;12866090;22;20176;-81
2021/08/27 15:03:17;;;;;;;3.78;1.38;;;;;25.90;101395.00;;;;12869096;22;20180;-80
2021/08/27 15:08:19;;;;;;;7.15;1.80;;;;;22.80;101397.00;;;;12868805;22;20165;-80
2021/08/27 15:13:25;;;;;;;5.65;1.60;;;;;21.90;101399.00;;;;12888521;22;20194;-79
2021/08/27 15:18:26;;;;;;;6.13;1.70;;;;;22.10;101403.00;;;;12859149;22;20195;-79
2021/08/27 15:23:27;;;;;;;4.18;1.48;;;;;21.90;101397.00;;;;12830243;22;20180;-77
2021/08/27 15:28:28;;;;;;;7.80;1.77;;;;;21.50;101412.00;;;;12882910;22;20597;-78
2021/08/27 15:33:29;;;;;;;4.35;1.48;;;;;21.00;101404.00;;;;12929215;22;20201;-78
2021/08/27 15:38:32;;;;;;;4.00;1.02;;;;;20.90;101410.00;;;;12857092;22;20624;-77
2021/08/27 15:43:33;;;;;;;3.60;1.73;;;;;21.00;101409.00;;;;12833812;22;20181;-77
2021/08/27 15:48:34;;;;;;;4.75;1.30;;;;;21.30;101413.00;;;;12885391;22;20178;-78
2021/08/27 15:53:36;;;;;;;4.15;1.27;;;;;21.40;101406.00;;;;12859386;22;20204;-78
2021/08/27 15:58:37;;;;;;;9.80;1.90;;;;;20.50;101414.00;;;;12907316;22;20498;-78
2021/08/27 16:03:38;;;;;;;5.50;2.20;;;;;20.30;101413.00;;;;12857790;22;20177;-77
2021/08/27 16:08:39;;;;;;;5.95;1.52;;;;;20.30;101419.00;;;;12910507;22;20742;-76
2021/08/27 16:13:40;;;;;;;9.65;2.45;;;;;20.10;101412.00;;;;12885569;22;20193;-77
2021/08/27 16:18:45;;;;;;;4.22;1.70;;;;;20.30;101413.00;;;;12886601;22;20824;-77
2021/08/27 16:23:47;;;;;;;7.85;2.45;;;;;20.70;101418.00;;;;12885922;22;20177;-77
2021/08/27 16:28:48;;;;;;;5.88;1.70;;;;;20.30;101405.00;;;;12865173;22;20174;-78
2021/08/27 16:33:49;;;;;;;5.75;1.60;;;;;20.20;101410.00;;;;12861110;22;20680;-77
2021/08/27 16:38:51;;;;;;;2.80;1.48;;;;;20.70;101416.00;;;;12863187;22;20178;-77
2021/08/27 16:43:52;;;;;;;5.05;1.80;;;;;21.10;101402.00;;;;12886523;22;20170;-78
2021/08/27 16:48:56;;;;;;;6.32;1.67;;;;;20.80;101409.00;;;;12885608;22;20169;-78
2021/08/27 16:53:57;;;;;;;3.55;1.63;;;;;20.20;101410.00;;;;12885093;22;20197;-78
2021/08/27 16:58:58;;;;;;;6.22;1.83;;;;;19.50;101411.00;;;;12860172;22;20177;-78
2021/08/27 17:03:59;;;;;;;7.78;2.22;;;;;18.90;101426.00;;;;12885334;22;20617;-78
2021/08/27 17:09:01;;;;;;;9.82;2.05;;;;;18.30;101419.00;;;;12912539;22;20173;-77
2021/08/27 17:14:02;;;;;;;4.95;1.70;;;;;17.90;101419.00;;;;12837416;22;20238;-78
2021/08/27 17:19:04;;;;;;;10.00;3.08;;;;;17.90;101425.00;;;;12860981;22;20185;-78
2021/08/27 17:24:05;;;;;;;5.68;1.75;;;;;18.00;101434.00;;;;12860825;22;20215;-78
2021/08/27 17:29:07;;;;;;;6.13;1.90;;;;;18.30;101435.00;;;;12886494;22;20173;-78
2021/08/27 17:34:08;;;;;;;8.07;2.10;;;;;18.60;101436.00;;;;12911093;22;20716;-77
2021/08/27 17:39:09;;;;;;;10.45;2.58;;;;;18.40;101440.00;;;;12861124;22;20170;-77
2021/08/27 17:44:10;;;;;;;5.55;1.90;;;;;18.20;101452.00;;;;12861793;22;20169;-77
2021/08/27 17:49:11;;;;;;;7.35;1.88;;;;;18.20;101450.00;;;;12859974;22;20178;-79
2021/08/27 17:54:12;;;;;;;6.72;2.38;;;;;18.00;101459.00;;;;12883737;22;20196;-78
2021/08/27 17:59:14;;;;;;;7.47;2.05;;;;;17.80;101470.00;;;;12886209;22;20643;-76
2021/08/27 18:04:15;;;;;;;3.80;1.70;;;;;17.80;101478.00;;;;12862990;22;20548;-78
2021/08/27 18:09:17;;;;;;;5.93;1.90;;;;;17.60;101490.00;;;;12905104;22;20240;-77
2021/08/27 18:14:18;;;;;;;7.88;1.92;;;;;17.40;101494.00;;;;12861078;22;20247;-77
2021/08/27 18:19:19;;;;;;;4.88;1.70;;;;;17.30;101516.00;;;;12881917;22;20200;-77
2021/08/27 18:24:20;;;;;;;3.08;1.52;;;;;17.10;101513.00;;;;12863681;22;20173;-77
2021/08/27 18:29:22;;;;;;;4.95;1.98;;;;;16.90;101512.00;;;;12862331;22;20231;-77
2021/08/27 18:34:24;;;;;;;9.13;2.33;;;;;16.70;101514.00;;;;12909699;22;20212;-77
2021/08/27 18:39:25;;;;;;;5.72;2.38;;;;;16.60;101515.00;;;;12811768;22;20169;-78
2021/08/27 18:44:26;;;;;;;9.40;2.35;;;;;16.40;101518.00;;;;12930597;22;20249;-76
2021/08/27 18:49:28;;;;;;;7.20;1.98;;;;;16.30;101517.00;;;;12859191;22;20173;-77
2021/08/27 18:54:29;;;;;;;5.85;1.90;;;;;16.30;101523.00;;;;12835362;22;20205;-77
2021/08/27 18:59:30;;;;;;;3.83;1.60;;;;;16.30;101529.00;;;;12931460;22;20165;-77
2021/08/27 19:04:32;;;;;;;6.20;2.40;;;;;16.30;101530.00;;;;12857815;22;20216;-78
2021/08/27 19:09:33;;;;;;;7.18;2.63;;;;;16.20;101525.00;;;;12883753;22;20169;-78
2021/08/27 19:14:34;;;;;;;7.97;2.15;;;;;16.20;101539.00;;;;12858494;22;20267;-78
2021/08/27 19:19:35;;;;;;;6.45;1.90;;;;;16.20;101545.00;;;;12857885;22;20196;-78
2021/08/27 19:24:36;;;;;;;5.80;2.33;;;;;16.30;101530.00;;;;12858851;22;20193;-78
2021/08/27 19:29:37;;;;;;;7.18;1.73;;;;;16.30;101526.00;;;;12884561;22;20176;-77
2021/08/27 19:34:39;;;;;;;5.85;1.98;;;;;16.20;101525.00;;;;12929285;22;20703;-78
2021/08/27 19:39:40;;;;;;;5.20;1.90;;;;;16.20;101535.00;;;;12882747;22;20216;-77
2021/08/27 19:44:46;;;;;;;9.50;2.78;;;;;16.10;101538.00;;;;12861447;22;20512;-77
2021/08/27 19:49:48;;;;;;;19.33;2.78;;;;;16.00;101538.00;;;;12861511;22;20715;-78
2021/08/27 19:54:49;;;;;;;7.20;2.38;;;;;15.90;101551.00;;;;12861910;22;20698;-77
2021/08/27 19:59:51;;;;;;;7.50;2.35;;;;;15.80;101541.00;;;;12910654;22;20170;-77
2021/08/27 20:04:53;;;;;;;7.57;2.72;;;;;15.70;101553.00;;;;12886016;22;20174;-78
2021/08/27 20:09:54;;;;;;;5.93;2.47;;;;;15.70;101541.00;;;;12861244;22;20174;-77
2021/08/27 20:14:55;;;;;;;6.40;2.10;;;;;15.70;101545.00;;;;12860692;22;20197;-77
2021/08/27 20:19:56;;;;;;;5.55;2.63;;;;;15.80;101543.00;;;;12835241;22;20269;-78
2021/08/27 20:24:58;;;;;;;7.28;2.67;;;;;15.90;101545.00;;;;12860246;22;20173;-77
2021/08/27 20:29:59;;;;;;;7.33;2.43;;;;;15.90;101555.00;;;;12931469;22;20217;-78
2021/08/27 20:35:02;;;;;;;9.43;2.23;;;;;16.00;101551.00;;;;12884763;22;20190;-77
2021/08/27 20:40:04;;;;;;;7.50;1.80;;;;;16.00;101555.00;;;;12860695;22;20181;-77
2021/08/27 20:45:09;;;;;;;8.77;2.38;;;;;16.00;101555.00;;;;12905411;22;20169;-77
2021/08/27 20:50:11;;;;;;;7.43;1.92;;;;;16.00;101562.00;;;;12884514;22;20188;-77
2021/08/27 20:55:12;;;;;;;7.40;2.30;;;;;16.00;101561.00;;;;12835592;22;20486;-77
2021/08/27 21:00:13;;;;;;;6.33;1.93;;;;;16.00;101557.00;;;;12885115;22;20209;-77
2021/08/27 21:05:15;;;;;;;10.67;3.77;;;;;15.90;101552.00;;;;12884684;22;20170;-77
2021/08/27 21:10:16;;;;;;;8.60;2.28;;;;;15.90;101556.00;;;;12860466;22;20215;-77
2021/08/27 21:15:18;;;;;;;9.00;2.47;;;;;15.70;101548.00;;;;12860852;22;20280;-77
2021/08/27 21:20:19;;;;;;;6.70;2.43;;;;;15.50;101539.00;;;;12861974;22;20180;-77
2021/08/27 21:25:21;;;;;;;6.73;2.00;;;;;15.30;101542.00;;;;12885526;22;20177;-77
2021/08/27 21:30:22;;;;;;;9.10;2.10;;;;;15.20;101539.00;;;;12859852;22;20602;-77
2021/08/27 21:35:23;;;;;;;6.43;2.80;;;;;15.10;101539.00;;;;12860785;22;20954;-78
2021/08/27 21:40:25;;;;;;;6.20;2.13;;;;;15.10;101536.00;;;;12930246;22;20220;-77
2021/08/27 21:45:27;;;;;;;9.10;2.57;;;;;15.10;101529.00;;;;12835607;22;20201;-77
2021/08/27 21:50:28;;;;;;;12.03;2.90;;;;;15.00;101529.00;;;;12834630;22;20224;-77
2021/08/27 21:55:30;;;;;;;8.47;2.47;;;;;15.00;101530.00;;;;12836344;22;20193;-77
2021/08/27 22:00:31;;;;;;;8.87;2.57;;;;;14.90;101512.00;;;;12837153;22;20169;-77
2021/08/27 22:05:32;;;;;;;7.83;2.63;;;;;14.80;101517.00;;;;12884607;22;20621;-77
2021/08/27 22:10:33;;;;;;;9.73;2.90;;;;;14.80;101509.00;;;;12932128;22;20165;-77
2021/08/27 22:15:35;;;;;;;11.60;3.27;;;;;14.80;101503.00;;;;12885343;22;20209;-77
2021/08/27 22:20:37;;;;;;;6.70;2.60;;;;;14.80;101504.00;;;;12911041;22;20192;-77
2021/08/27 22:25:39;;;;;;;8.03;2.67;;;;;14.80;101505.00;;;;12931207;22;20221;-76
2021/08/27 22:30:41;;;;;;;8.53;3.23;;;;;14.80;101506.00;;;;12861125;22;20265;-76
2021/08/27 22:35:42;;;;;;;7.70;2.53;;;;;14.70;101501.00;;;;12839662;22;20204;-76
2021/08/27 22:40:44;;;;;;;7.90;2.63;;;;;14.60;101496.00;;;;12934964;22;20331;-77
2021/08/27 22:45:45;;;;;;;7.13;3.33;;;;;14.40;101500.00;;;;12935324;22;20976;-77
2021/08/27 22:50:46;;;;;;;13.40;2.57;;;;;14.30;101502.00;;;;12863600;22;20176;-77
2021/08/27 22:55:47;;;;;;;10.33;3.33;;;;;14.20;101492.00;;;;12862652;22;20193;-76
2021/08/27 23:00:48;;;;;;;15.60;3.80;;;;;14.30;101500.00;;;;12909826;22;20162;-76
2021/08/27 23:05:50;;;;;;;11.73;3.37;;;;;14.30;101501.00;;;;12887371;22;20169;-76
2021/08/27 23:10:51;;;;;;;12.07;3.90;;;;;14.30;101503.00;;;;12888877;22;20561;-76
2021/08/27 23:15:52;;;;;;;10.80;3.50;;;;;14.30;101500.00;;;;12838707;22;20205;-76
2021/08/27 23:20:53;;;;;;;17.83;3.50;;;;;14.30;101502.00;;;;12890877;22;20556;-77
2021/08/27 23:25:55;;;;;;;6.90;3.03;;;;;14.20;101498.00;;;;12891196;22;20756;-77
2021/08/27 23:30:56;;;;;;;10.13;3.27;;;;;14.10;101494.00;;;;12865865;22;20166;-77
2021/08/27 23:35:58;;;;;;;11.27;3.37;;;;;14.00;101502.00;;;;12866909;22;20201;-77
2021/08/27 23:40:59;;;;;;;7.80;2.73;;;;;13.80;101498.00;;;;12890239;22;20169;-76
2021/08/27 23:46:01;;;;;;;11.20;3.47;;;;;13.80;101495.00;;;;12866273;22;20496;-77
2021/08/27 23:51:02;;;;;;;10.17;3.33;;;;;13.70;101494.00;;;;12914855;22;20556;-77
2021/08/27 23:56:03;;;;;;;11.90;3.37;;;;;13.60;101488.00;;;;12889981;23;20236;-77
